createdAt,value
2022-07-26T00:02:00.699Z,97085.69
2022-07-26T00:07:04.505Z,97087.25
2022-07-26T00:12:09.255Z,97083.69
2022-07-26T00:17:14.556Z,97088.22
2022-07-26T00:22:36.305Z,97088.47
2022-07-26T00:27:40.037Z,97080.72
2022-07-26T00:32:45.090Z,97081.81
2022-07-26T00:37:49.261Z,97079.13
2022-07-26T00:42:54.117Z,97081.78
2022-07-26T00:47:59.102Z,97084.66
2022-07-26T00:53:02.755Z,97092.00
2022-07-26T00:58:06.996Z,97098.16
2022-07-26T01:03:12.169Z,97102.09
2022-07-26T01:08:16.041Z,97108.97
2022-07-26T01:13:21.035Z,97105.28
2022-07-26T01:18:26.195Z,97099.75
2022-07-26T01:23:31.270Z,97093.69
2022-07-26T01:28:39.058Z,97099.16
2022-07-26T01:33:43.483Z,97097.50
2022-07-26T01:38:48.652Z,97109.97
2022-07-26T01:43:52.161Z,97110.00
2022-07-26T01:48:55.799Z,97104.25
2022-07-26T01:54:01.014Z,97105.44
2022-07-26T01:59:04.609Z,97112.00
2022-07-26T02:04:08.988Z,97119.00
2022-07-26T02:09:14.321Z,97116.47
2022-07-26T02:14:25.738Z,97102.25
2022-07-26T02:19:32.476Z,97107.44
2022-07-26T02:24:37.735Z,97096.97
2022-07-26T02:29:41.715Z,97099.72
2022-07-26T02:34:45.361Z,97096.88
2022-07-26T02:39:50.293Z,97094.78
2022-07-26T02:44:54.197Z,97085.72
2022-07-26T02:49:57.849Z,97087.97
2022-07-26T02:55:20.434Z,97090.38
2022-07-26T03:00:25.971Z,97090.00
2022-07-26T03:05:29.777Z,97093.28
2022-07-26T03:10:34.757Z,97096.31
2022-07-26T03:15:38.437Z,97091.66
2022-07-26T03:20:42.155Z,97080.34
2022-07-26T03:25:47.105Z,97084.69
2022-07-26T03:30:50.840Z,97084.91
2022-07-26T03:35:54.331Z,97094.75
2022-07-26T03:41:00.127Z,97100.94
2022-07-26T03:46:03.767Z,97097.22
2022-07-26T03:51:07.779Z,97099.94
2022-07-26T03:56:32.395Z,97098.91
2022-07-26T04:01:36.975Z,97110.44
2022-07-26T04:06:41.740Z,97114.78
2022-07-26T04:11:48.762Z,97121.44
2022-07-26T04:16:52.550Z,97128.47
2022-07-26T04:21:56.283Z,97116.44
2022-07-26T04:27:01.324Z,97119.59
2022-07-26T04:32:05.100Z,97122.75
2022-07-26T04:37:08.618Z,97125.72
2022-07-26T04:42:13.530Z,97133.59
2022-07-26T04:47:17.199Z,97140.75
2022-07-26T04:52:21.063Z,97135.03
2022-07-26T04:57:26.065Z,97147.19
2022-07-26T05:02:29.936Z,97152.19
2022-07-26T05:07:41.091Z,97148.94
2022-07-26T05:12:46.609Z,97155.09
2022-07-26T05:17:50.069Z,97158.50
2022-07-26T05:22:53.829Z,97150.72
2022-07-26T05:27:58.791Z,97157.38
2022-07-26T05:33:02.585Z,97156.91
2022-07-26T05:38:06.524Z,97160.72
2022-07-26T05:43:11.529Z,97168.31
2022-07-26T05:48:15.195Z,97169.56
2022-07-26T05:53:18.782Z,97165.97
2022-07-26T05:58:23.883Z,97174.81
2022-07-26T06:03:27.623Z,97167.44
2022-07-26T06:08:31.518Z,97163.72
2022-07-26T06:13:36.622Z,97161.53
2022-07-26T06:18:40.240Z,97148.66
2022-07-26T06:23:43.694Z,97152.38
2022-07-26T06:28:50.469Z,97148.56
2022-07-26T06:33:53.956Z,97147.72
2022-07-26T06:38:57.575Z,97152.06
2022-07-26T06:44:02.918Z,97164.56
2022-07-26T06:49:07.153Z,97166.47
2022-07-26T06:54:11.377Z,97177.28
2022-07-26T06:59:16.997Z,97164.13
2022-07-26T07:04:20.653Z,97158.50
2022-07-26T07:09:24.694Z,97157.56
2022-07-26T07:14:30.662Z,97162.06
2022-07-26T07:19:37.256Z,97152.19
2022-07-26T07:24:42.384Z,97160.78
2022-07-26T07:29:47.714Z,97142.66
2022-07-26T07:34:51.437Z,97152.94
2022-07-26T07:39:55.301Z,97145.38
2022-07-26T07:45:01.918Z,97152.34
2022-07-26T07:50:06.492Z,97149.91
2022-07-26T07:55:36.643Z,97142.63
2022-07-26T08:00:36.042Z,97152.88
2022-07-26T08:05:40.862Z,97148.25
2022-07-26T08:10:51.953Z,97142.66
2022-07-26T08:15:58.073Z,97147.13
2022-07-26T08:21:04.614Z,97143.22
2022-07-26T08:26:08.682Z,97140.72
2022-07-26T08:31:13.822Z,97140.13
2022-07-26T08:36:18.371Z,97140.25
2022-07-26T08:41:23.298Z,97140.75
2022-07-26T08:46:28.854Z,97151.03
2022-07-26T08:51:33.117Z,97160.66
2022-07-26T08:56:38.357Z,97174.31
2022-07-26T09:01:57.190Z,97173.03
2022-07-26T09:07:03.782Z,97180.44
2022-07-26T09:12:18.961Z,97168.28
2022-07-26T09:17:26.041Z,97165.88
2022-07-26T09:22:29.859Z,97166.63
2022-07-26T09:27:37.402Z,97173.03
2022-07-26T09:32:42.317Z,97165.25
2022-07-26T09:37:47.032Z,97173.13
2022-07-26T09:42:58.536Z,97182.13
2022-07-26T09:48:04.717Z,97174.63
2022-07-26T09:53:09.806Z,97171.13
2022-07-26T09:58:14.274Z,97167.31
2022-07-26T10:03:19.691Z,97177.91
2022-07-26T10:08:23.510Z,97188.63
2022-07-26T10:13:30.338Z,97182.25
2022-07-26T10:18:50.166Z,97190.47
2022-07-26T10:23:57.971Z,97192.94
2022-07-26T10:29:27.419Z,97194.09
2022-07-26T10:34:34.559Z,97204.94
2022-07-26T10:39:39.405Z,97206.31
2022-07-26T10:44:45.344Z,97187.50
2022-07-26T10:49:58.994Z,97200.38
2022-07-26T10:55:11.491Z,97204.13
2022-07-26T11:00:24.240Z,97197.97
2022-07-26T11:05:33.812Z,97193.19
2022-07-26T11:10:39.910Z,97193.66
2022-07-26T11:15:46.365Z,97196.44
2022-07-26T11:20:55.280Z,97211.84
2022-07-26T11:26:14.413Z,97210.81
2022-07-26T11:31:20.032Z,97221.84
2022-07-26T11:36:39.509Z,97214.41
2022-07-26T11:41:44.558Z,97231.50
2022-07-26T11:46:48.903Z,97227.22
2022-07-26T11:51:55.959Z,97229.16
2022-07-26T11:57:01.355Z,97229.84
2022-07-26T12:02:07.349Z,97232.31
2022-07-26T12:07:15.033Z,97247.81
2022-07-26T12:12:23.706Z,97225.47
2022-07-26T12:17:35.102Z,97231.28
2022-07-26T12:22:41.498Z,97233.59
2022-07-26T12:27:47.585Z,97240.47
2022-07-26T12:32:54.502Z,97238.16
2022-07-26T12:37:59.500Z,97243.00
2022-07-26T12:43:03.739Z,97244.19
2022-07-26T12:48:11.041Z,97244.72
2022-07-26T12:53:15.871Z,97244.91
2022-07-26T12:58:19.372Z,97241.19
2022-07-26T13:03:23.025Z,97239.47
2022-07-26T13:08:27.835Z,97242.50
2022-07-26T13:13:31.409Z,97232.56
2022-07-26T13:18:34.910Z,97235.38
2022-07-26T13:23:40.661Z,97237.16
2022-07-26T13:28:44.461Z,97250.53
2022-07-26T13:33:53.058Z,97233.69
2022-07-26T13:38:58.225Z,97232.19
2022-07-26T13:44:01.778Z,97230.47
2022-07-26T13:49:07.140Z,97229.28
2022-07-26T13:54:13.479Z,97236.47
2022-07-26T13:59:17.508Z,97230.59
2022-07-26T14:04:22.215Z,97239.53
2022-07-26T14:09:27.552Z,97235.13
2022-07-26T14:14:31.059Z,97249.50
2022-07-26T14:19:36.694Z,97256.91
2022-07-26T14:24:41.881Z,97251.31
2022-07-26T14:29:46.427Z,97261.25
2022-07-26T14:34:50.077Z,97259.56
2022-07-26T14:39:55.093Z,97250.28
2022-07-26T14:44:58.677Z,97253.13
2022-07-26T14:50:06.489Z,97253.56
2022-07-26T14:55:13.205Z,97252.59
2022-07-26T15:00:18.611Z,97254.31
2022-07-26T15:05:23.415Z,97252.81
2022-07-26T15:10:31.362Z,97250.31
2022-07-26T15:15:35.056Z,97247.94
2022-07-26T15:20:40.707Z,97245.81
2022-07-26T15:25:48.750Z,97252.97
2022-07-26T15:30:52.896Z,97247.63
2022-07-26T15:35:56.645Z,97236.06
2022-07-26T15:41:01.567Z,97237.72
2022-07-26T15:46:06.210Z,97231.59
2022-07-26T15:51:11.699Z,97249.19
2022-07-26T15:56:17.176Z,97245.41
2022-07-26T16:01:20.936Z,97265.66
2022-07-26T16:06:24.636Z,97278.28
2022-07-26T16:11:30.176Z,97276.84
2022-07-26T16:16:34.086Z,97282.88
2022-07-26T16:21:38.304Z,97277.25
2022-07-26T16:26:43.998Z,97288.31
2022-07-26T16:31:48.440Z,97287.03
2022-07-26T16:36:51.967Z,97300.38
2022-07-26T16:41:57.101Z,97301.38
2022-07-26T16:47:01.096Z,97296.38
2022-07-26T16:52:05.880Z,97300.66
2022-07-26T16:57:11.242Z,97307.94
2022-07-26T17:02:15.011Z,97308.81
2022-07-26T17:07:26.404Z,97309.75
2022-07-26T17:12:31.876Z,97314.13
2022-07-26T17:17:35.431Z,97309.84
2022-07-26T17:22:39.407Z,97312.13
2022-07-26T17:27:44.705Z,97312.09
2022-07-26T17:32:48.679Z,97316.56
2022-07-26T17:37:55.571Z,97317.16
2022-07-26T17:43:01.407Z,97325.13
2022-07-26T17:48:06.503Z,97324.34
2022-07-26T17:53:10.509Z,97325.63
2022-07-26T17:58:15.562Z,97328.75
2022-07-26T18:03:20.264Z,97329.66
2022-07-26T18:08:27.233Z,97326.75
2022-07-26T18:13:32.509Z,97336.19
2022-07-26T18:18:36.420Z,97330.97
2022-07-26T18:23:54.635Z,97321.03
2022-07-26T18:29:04.800Z,97330.09
2022-07-26T18:34:08.471Z,97325.38
2022-07-26T18:39:13.541Z,97324.50
2022-07-26T18:44:19.542Z,97334.69
2022-07-26T18:49:30.703Z,97339.28
2022-07-26T18:54:34.673Z,97342.22
2022-07-26T18:59:39.805Z,97348.25
2022-07-26T19:04:43.416Z,97346.19
2022-07-26T19:09:46.810Z,97358.16
2022-07-26T19:14:51.796Z,97352.78
2022-07-26T19:19:56.204Z,97359.47
2022-07-26T19:25:00.815Z,97366.53
2022-07-26T19:30:06.720Z,97367.41
2022-07-26T19:35:10.924Z,97386.53
2022-07-26T19:40:14.461Z,97377.28
2022-07-26T19:45:19.406Z,97390.88
2022-07-26T19:50:22.933Z,97386.81
2022-07-26T19:55:26.483Z,97384.31
2022-07-26T20:00:31.591Z,97392.63
2022-07-26T20:05:35.191Z,97392.97
2022-07-26T20:10:38.706Z,97390.44
2022-07-26T20:15:44.245Z,97401.06
2022-07-26T20:20:47.821Z,97404.72
2022-07-26T20:25:51.456Z,97413.03
2022-07-26T20:30:56.539Z,97410.03
2022-07-26T20:36:00.128Z,97405.25
2022-07-26T20:41:03.690Z,97411.09
2022-07-26T20:46:10.873Z,97412.09
2022-07-26T20:51:14.483Z,97413.78
2022-07-26T20:56:18.616Z,97419.94
2022-07-26T21:01:24.387Z,97420.84
2022-07-26T21:06:29.173Z,97416.81
2022-07-26T21:11:33.418Z,97417.34
2022-07-26T21:16:39.089Z,97422.69
2022-07-26T21:21:42.717Z,97445.53
2022-07-26T21:26:46.150Z,97446.97
2022-07-26T21:31:51.140Z,97448.84
2022-07-26T21:36:54.986Z,97445.75
2022-07-26T21:41:58.548Z,97454.97
2022-07-26T21:47:05.906Z,97451.75
2022-07-26T21:52:09.861Z,97449.56
2022-07-26T21:57:13.507Z,97453.78
2022-07-26T22:02:19.934Z,97445.75
2022-07-26T22:07:25.390Z,97450.91
2022-07-26T22:12:30.074Z,97454.44
2022-07-26T22:17:35.036Z,97455.44
2022-07-26T22:22:39.129Z,97461.28
2022-07-26T22:27:42.653Z,97464.31
2022-07-26T22:32:47.756Z,97457.78
2022-07-26T22:37:51.695Z,97458.63
2022-07-26T22:42:58.756Z,97471.00
2022-07-26T22:48:04.861Z,97456.28
2022-07-26T22:53:08.296Z,97460.81
2022-07-26T22:58:12.219Z,97457.94
2022-07-26T23:03:20.090Z,97457.78
2022-07-26T23:13:52.075Z,97454.75
2022-07-26T23:19:04.134Z,97458.59
2022-07-26T23:24:08.367Z,97457.22
2022-07-26T23:29:12.324Z,97450.69
2022-07-26T23:34:17.646Z,97450.19
2022-07-26T23:39:22.306Z,97445.47
2022-07-26T23:44:25.982Z,97445.47
2022-07-26T23:49:31.139Z,97440.50
2022-07-26T23:54:34.778Z,97439.88
2022-07-26T23:59:38.423Z,97446.88
